Soleil Weather Down

Nearby METAR Reports

 

KCNI - Canton/Cherokee, Georgia, USA
Distance from station: ENE 6mi, 10km
Updated: Thu, 26-Nov-2020 1:35am EST
Rain, Overcast
Rain, Overcast
 Wind from SW
Wind: SW 6 mph , 9 km/h
Temperature: 61°F , 16°C
Dew Point: 61°F , 16°C
Humidity: 100%
Barometer: 30.07 inHg , 1018.3 hPa
Summary: Rain
Clouds: Overcast
Visibility: 5 miles , 8 km
Cloud details: Overcast 400 ft
2020/11/26 06:35 KCNI 260635Z AUTO 22005KT 5SM RA OVC004 16/16 A3007 RMK AO2
KRYY - Marietta Mccolum, Georgia, USA
Distance from station: SSW 18mi, 29km
Updated: Thu, 26-Nov-2020 1:22am EST
Light rain, Overcast
Light rain, Overcast
 Wind from SSW
Wind: SSW 7 mph , 11 km/h
Temperature: 61°F , 16°C
Dew Point: 61°F , 16°C
Humidity: 100%
Barometer: 30.07 inHg , 1018.3 hPa
Summary: Light rain
Clouds: Overcast
Visibility: 10 miles , 16 km
Cloud details: Mostly cloudy 700 ft
Overcast 1000 ft
2020/11/26 06:22 KRYY 260622Z AUTO 20006KT 10SM -RA BKN007 OVC010 16/16 A3007 RMK AO2 RAB0553 CIG 004V008 PNO $
KVPC - Cartersville, Georgia, USA
Distance from station: WSW 22mi, 35km
Updated: Thu, 26-Nov-2020 1:04am EST
Overcast
Overcast
 Wind from S
Wind: S 8 mph , 13 km/h
Temperature: 64°F , 18°C
Dew Point: 61°F , 16°C
Humidity: 88%
Barometer: 30.06 inHg , 1017.9 hPa
Clouds: Overcast
Visibility: 10 miles , 16 km
Cloud details: Partly cloudy 1200 ft
Overcast 3700 ft
2020/11/26 06:04 KVPC 260604Z AUTO 18007KT 10SM SCT012 OVC037 18/16 A3006 RMK AO2 T01780156
 
KMGE - Dobbins Afb/Mari, Georgia, USA
Distance from station: S 24mi, 39km
Updated: Thu, 26-Nov-2020 1:26am EST
Light rain, Overcast
Light rain, Overcast
 Wind from S
Wind: S 6 mph , 9 km/h
Temperature: 61°F , 16°C
Dew Point: 61°F , 16°C
Humidity: 100%
Barometer: 30.06 inHg , 1017.9 hPa
Summary: Light rain
Clouds: Overcast
Visibility: 10 miles , 16 km
Cloud details: Overcast 600 ft
2020/11/26 06:26 KMGE 260626Z AUTO 19005KT 10SM -RA OVC006 16/16 A3006 RMK AO2 SLP174 $
KPDK - Peachtree/Dekalb, Georgia, USA
Distance from station: SSE 29mi, 47km
Updated: Thu, 26-Nov-2020 1:02am EST
Overcast
Overcast
 Wind from S
Wind: S 10 mph , 17 km/h
Temperature: 61°F , 16°C
Dew Point: 61°F , 16°C
Humidity: 100%
Barometer: 30.07 inHg , 1018.3 hPa
Clouds: Overcast
Visibility: 10 miles , 16 km
Cloud details: Overcast 400 ft
2020/11/26 06:02 KPDK 260602Z AUTO 18009KT 10SM OVC004 16/16 A3007 RMK AO2 T01610156
KFTY - Atlanta/Fulton, Georgia, USA
Distance from station: S 34mi, 54km
Updated: Thu, 26-Nov-2020 12:53am EST
Light rain, Overcast
Light rain, Overcast
 Wind from S
Wind: S 8 mph , 13 km/h
Temperature: 63°F , 17°C
Dew Point: 61°F , 16°C
Humidity: 94%
Barometer: 30.07 inHg , 1018.3 hPa
Summary: Light rain
Clouds: Overcast
Visibility: 10 miles , 16 km
Cloud details: Overcast 700 ft
2020/11/26 05:53 KFTY 260553Z 19007KT 10SM -RA OVC007 17/16 A3007 RMK AO2 RAE09B52 CIG 005V011 SLP176 P0001 60002 T01670156 10172 20161 58010
 
KPUJ - Atlanta/Paulding, Georgia, USA
Distance from station: SW 34mi, 55km
Updated: Thu, 26-Nov-2020 1:35am EST
Rain, Overcast
Rain, Overcast
 Wind from SSW
Wind: SSW 6 mph , 9 km/h
Temperature: 61°F , 16°C
Dew Point: 61°F , 16°C
Humidity: 100%
Barometer: 30.05 inHg , 1017.6 hPa
Summary: Rain
Clouds: Overcast
Visibility: 10 miles , 16 km
Cloud details: Overcast 300 ft
2020/11/26 06:35 KPUJ 260635Z AUTO 20005KT 10SM RA OVC003 16/16 A3005 RMK AO2
KDNN - Dalton, Georgia, USA
Distance from station: NW 37mi, 59km
Updated: Thu, 26-Nov-2020 1:35am EST
Overcast
Overcast
 Wind from calm
Wind: Calm
Temperature: 61°F , 16°C
Dew Point: 59°F , 15°C
Humidity: 94%
Barometer: 30.07 inHg , 1018.3 hPa
Clouds: Overcast
Visibility: 1 3/4 miles , 2.8 km
Cloud details: Partly cloudy 800 ft
Mostly cloudy 1300 ft
Overcast 2500 ft
2020/11/26 06:35 KDNN 260635Z AUTO 00000KT 1 3/4SM SCT008 BKN013 OVC025 16/15 A3007 RMK AO2
KLZU - Lawrenceville, Georgia, USA
Distance from station: ESE 37mi, 59km
Updated: Thu, 26-Nov-2020 1:30am EST
Overcast
Overcast
 Wind from SSW
Wind: SSW 9 mph , 15 km/h, Gust: 18 mph , 30 km/h
Temperature: 61°F , 16°C
Dew Point: 61°F , 16°C
Humidity: 100%
Barometer: 30.07 inHg , 1018.3 hPa
Clouds: Overcast
Visibility: 10 miles , 16 km
Cloud details: Overcast 500 ft
2020/11/26 06:30 KLZU 260630Z AUTO 20008G16KT 10SM OVC005 16/16 A3007 RMK AO2
 
KRMG - Rome, Georgia, USA
Distance from station: W 38mi, 61km
Updated: Thu, 26-Nov-2020 1:36am EST
Mist, Overcast
Mist, Overcast
 Wind from calm
Wind: Calm
Temperature: 61°F , 16°C
Dew Point: 61°F , 16°C
Humidity: 100%
Barometer: 30.04 inHg , 1017.3 hPa
Summary: Mist
Clouds: Overcast
Visibility: 2 miles , 3 km
Cloud details: Few Clouds 700 ft
Mostly cloudy 1200 ft
Overcast 1900 ft
2020/11/26 06:36 KRMG 260636Z AUTO 00000KT 2SM BR FEW007 BKN012 OVC019 16/16 A3004 RMK AO2 RAE24 P0003 T01610156
KGVL - Gainesville, Georgia, USA
Distance from station: E 39mi, 62km
Updated: Thu, 26-Nov-2020 12:53am EST
Light rain, Fog, Overcast
Light rain, Fog, Overcast
 Wind from S
Wind: S 8 mph , 13 km/h
Temperature: 57°F , 14°C
Dew Point: 55°F , 13°C
Humidity: 94%
Barometer: 30.09 inHg , 1019 hPa
Summary: Light rain, Fog
Clouds: Overcast
Visibility: 1/2 mile , 0.8 km
Cloud details: Overcast 200 ft
2020/11/26 05:53 KGVL 260553Z AUTO 17007KT 1/2SM -RA FG VV002 14/13 A3009 RMK AO2 RAB00E10B41 SLP183 P0001 60006 T01390128 10139 20128 58012
KATL - Atlanta, Georgia, USA
Distance from station: S 44mi, 71km
Updated: Thu, 26-Nov-2020 12:52am EST
Overcast
Overcast
 Wind from S
Wind: S 9 mph , 15 km/h
Temperature: 63°F , 17°C
Dew Point: 61°F , 16°C
Humidity: 94%
Barometer: 30.09 inHg , 1019 hPa
Clouds: Overcast
Visibility: 2 miles , 3 km
Cloud details: Overcast 400 ft
2020/11/26 05:52 KATL 260552Z 19008KT 2SM OVC004 17/16 A3009 RMK AO2 SFC VIS 10 RAE0459 SLP183 CIG 003V005 P0000 60000 T01670156 10167 20161 58006